createdAt,value
2023-06-10T00:00:28.746Z,6.95
2023-06-10T00:02:55.744Z,7.30
2023-06-10T00:05:22.711Z,7.40
2023-06-10T00:07:50.668Z,7.32
2023-06-10T00:10:17.865Z,6.80
2023-06-10T00:12:45.032Z,6.82
2023-06-10T00:15:12.278Z,7.13
2023-06-10T00:17:40.455Z,6.82
2023-06-10T00:20:10.361Z,6.90
2023-06-10T00:22:37.316Z,6.72
2023-06-10T00:25:05.390Z,7.00
2023-06-10T00:27:36.239Z,6.90
2023-06-10T00:30:05.551Z,6.18
2023-06-10T00:32:32.555Z,6.95
2023-06-10T00:34:59.471Z,6.45
2023-06-10T00:37:26.368Z,6.70
2023-06-10T00:39:53.474Z,6.38
2023-06-10T00:42:20.401Z,5.78
2023-06-10T00:44:47.946Z,6.07
2023-06-10T00:47:14.897Z,6.43
2023-06-10T00:49:42.051Z,7.25
2023-06-10T00:52:09.487Z,6.22
2023-06-10T00:54:36.628Z,6.43
2023-06-10T00:57:03.584Z,6.90
2023-06-10T00:59:30.929Z,6.53
2023-06-10T01:01:58.174Z,6.93
2023-06-10T01:04:26.151Z,6.93
2023-06-10T01:07:01.687Z,6.68
2023-06-10T01:09:37.409Z,6.85
2023-06-10T01:12:11.514Z,7.15
2023-06-10T01:14:39.808Z,6.40
2023-06-10T01:17:08.608Z,7.50
2023-06-10T01:19:37.648Z,7.07
2023-06-10T01:22:05.049Z,6.50
2023-06-10T01:24:35.354Z,6.80
2023-06-10T01:27:04.444Z,6.45
2023-06-10T01:29:47.280Z,6.40
2023-06-10T01:32:19.795Z,6.40
2023-06-10T01:34:47.011Z,6.40
2023-06-10T01:37:15.105Z,6.55
2023-06-10T01:39:42.178Z,5.82
2023-06-10T01:42:09.604Z,6.63
2023-06-10T01:44:36.803Z,6.50
2023-06-10T01:47:03.790Z,6.28
2023-06-10T01:49:31.131Z,6.57
2023-06-10T01:51:57.994Z,6.30
2023-06-10T01:54:24.819Z,6.00
2023-06-10T01:56:52.200Z,5.80
2023-06-10T01:59:19.124Z,6.25
2023-06-10T02:01:46.221Z,6.03
2023-06-10T02:04:13.079Z,6.18
2023-06-10T02:06:39.942Z,6.30
2023-06-10T02:09:07.361Z,6.05
2023-06-10T02:11:34.235Z,6.57
2023-06-10T02:14:01.066Z,5.75
2023-06-10T02:16:27.955Z,6.10
2023-06-10T02:18:55.874Z,6.00
2023-06-10T02:21:22.777Z,6.32
2023-06-10T02:23:49.731Z,6.35
2023-06-10T02:26:16.571Z,5.75
2023-06-10T02:28:44.111Z,5.55
2023-06-10T02:31:11.012Z,6.13
2023-06-10T02:33:41.279Z,5.75
2023-06-10T02:36:08.616Z,5.88
2023-06-10T02:38:35.541Z,5.82
2023-06-10T02:41:02.404Z,6.05
2023-06-10T02:43:29.379Z,5.65
2023-06-10T02:45:56.304Z,5.90
2023-06-10T02:48:24.727Z,6.07
2023-06-10T02:50:51.600Z,6.00
2023-06-10T02:53:18.431Z,6.05
2023-06-10T02:55:45.398Z,5.53
2023-06-10T02:58:12.241Z,5.90
2023-06-10T03:00:42.180Z,5.55
2023-06-10T03:03:09.586Z,5.97
2023-06-10T03:05:36.633Z,5.85
2023-06-10T03:08:03.534Z,5.85
2023-06-10T03:10:30.424Z,5.18
2023-06-10T03:12:57.284Z,5.70
2023-06-10T03:15:25.608Z,6.35
2023-06-10T03:17:52.534Z,6.13
2023-06-10T03:20:19.466Z,6.38
2023-06-10T03:22:46.463Z,6.25
2023-06-10T03:25:15.385Z,5.80
2023-06-10T03:27:43.294Z,5.60
2023-06-10T03:30:10.515Z,6.43
2023-06-10T03:32:37.955Z,5.55
2023-06-10T03:35:05.210Z,5.88
2023-06-10T03:37:32.042Z,6.28
2023-06-10T03:39:58.849Z,6.28
2023-06-10T03:42:26.076Z,6.30
2023-06-10T03:44:53.162Z,5.60
2023-06-10T03:47:19.984Z,5.85
2023-06-10T03:49:46.847Z,6.40
2023-06-10T03:52:13.695Z,6.05
2023-06-10T03:54:40.502Z,6.05
2023-06-10T03:57:07.423Z,6.28
2023-06-10T03:59:34.257Z,6.55
2023-06-10T04:02:01.824Z,5.97
2023-06-10T04:04:28.677Z,6.15
2023-06-10T04:06:55.529Z,5.85
2023-06-10T04:09:22.451Z,6.50
2023-06-10T04:11:49.314Z,6.18
2023-06-10T04:14:16.345Z,6.47
2023-06-10T04:16:44.145Z,6.15
2023-06-10T04:19:11.674Z,6.30
2023-06-10T04:21:38.587Z,6.82
2023-06-10T04:24:05.758Z,6.22
2023-06-10T04:26:32.644Z,6.53
2023-06-10T04:28:59.513Z,6.28
2023-06-10T04:31:26.372Z,6.32
2023-06-10T04:33:53.277Z,5.82
2023-06-10T04:36:20.267Z,6.65
2023-06-10T04:38:48.057Z,5.90
2023-06-10T04:41:14.915Z,6.90
2023-06-10T04:43:41.838Z,6.47
2023-06-10T04:46:09.376Z,6.40
2023-06-10T04:48:37.002Z,6.20
2023-06-10T04:51:03.960Z,6.93
2023-06-10T04:53:30.937Z,6.53
2023-06-10T04:55:58.719Z,6.50
2023-06-10T04:58:26.021Z,6.40
2023-06-10T05:00:52.902Z,6.43
2023-06-10T05:03:19.852Z,5.93
2023-06-10T05:05:46.773Z,6.90
2023-06-10T05:08:13.638Z,6.80
2023-06-10T05:10:40.507Z,6.70
2023-06-10T05:13:07.432Z,6.72
2023-06-10T05:15:34.465Z,6.28
2023-06-10T05:18:03.779Z,6.75
2023-06-10T05:20:31.026Z,6.90
2023-06-10T05:22:57.979Z,6.57
2023-06-10T05:25:26.512Z,6.13
2023-06-10T05:27:53.349Z,6.32
2023-06-10T05:30:20.301Z,6.60
2023-06-10T05:32:47.186Z,6.80
2023-06-10T05:35:14.243Z,6.63
2023-06-10T05:37:41.104Z,7.43
2023-06-10T05:40:08.445Z,6.82
2023-06-10T05:42:35.303Z,6.80
2023-06-10T05:45:02.473Z,6.13
2023-06-10T05:47:29.361Z,6.63
2023-06-10T05:49:56.490Z,6.50
2023-06-10T05:52:23.364Z,6.50
2023-06-10T05:54:51.051Z,6.68
2023-06-10T05:57:17.907Z,6.10
2023-06-10T05:59:44.893Z,6.57
2023-06-10T06:02:11.837Z,6.68
2023-06-10T06:04:38.902Z,6.32
2023-06-10T06:07:06.927Z,6.43
2023-06-10T06:09:33.808Z,7.15
2023-06-10T06:12:00.692Z,7.18
2023-06-10T06:14:27.536Z,6.28
2023-06-10T06:16:54.373Z,6.80
2023-06-10T06:19:21.231Z,6.72
2023-06-10T06:21:48.078Z,6.22
2023-06-10T06:24:15.377Z,6.82
2023-06-10T06:26:42.362Z,6.68
2023-06-10T06:29:09.253Z,5.75
2023-06-10T06:31:36.097Z,7.80
2023-06-10T06:34:03.184Z,6.30
2023-06-10T06:36:30.048Z,6.63
2023-06-10T06:38:56.921Z,7.28
2023-06-10T06:41:23.810Z,6.78
2023-06-10T06:43:50.672Z,6.50
2023-06-10T06:46:18.132Z,6.10
2023-06-10T06:48:45.438Z,6.60
2023-06-10T06:51:12.428Z,6.32
2023-06-10T06:53:45.377Z,5.93
2023-06-10T06:56:12.904Z,6.38
2023-06-10T06:58:39.719Z,6.43
2023-06-10T07:01:06.812Z,6.40
2023-06-10T07:03:33.744Z,6.50
2023-06-10T07:06:00.869Z,5.95
2023-06-10T07:08:27.768Z,6.07
2023-06-10T07:10:55.273Z,6.43
2023-06-10T07:13:22.220Z,6.45
2023-06-10T07:15:49.032Z,6.07
2023-06-10T07:18:16.290Z,6.47
2023-06-10T07:20:43.171Z,5.97
2023-06-10T07:23:10.077Z,6.03
2023-06-10T07:25:36.965Z,6.15
2023-06-10T07:28:03.874Z,6.82
2023-06-10T07:30:30.900Z,5.97
2023-06-10T07:32:57.821Z,6.50
2023-06-10T07:35:24.950Z,6.15
2023-06-10T07:37:51.849Z,6.45
2023-06-10T07:40:18.746Z,6.65
2023-06-10T07:42:45.669Z,6.43
2023-06-10T07:45:12.831Z,5.68
2023-06-10T07:47:40.070Z,6.50
2023-06-10T07:50:07.069Z,6.80
2023-06-10T07:52:33.959Z,6.97
2023-06-10T07:55:00.929Z,6.72
2023-06-10T07:57:27.778Z,6.57
2023-06-10T07:59:56.094Z,6.47
2023-06-10T08:02:25.612Z,6.22
2023-06-10T08:04:52.741Z,6.65
2023-06-10T08:07:20.313Z,5.93
2023-06-10T08:09:47.206Z,6.38
2023-06-10T08:12:14.161Z,6.55
2023-06-10T08:14:41.062Z,6.22
2023-06-10T08:17:08.206Z,7.10
2023-06-10T08:19:35.139Z,6.57
2023-06-10T08:22:02.061Z,6.43
2023-06-10T08:24:28.934Z,6.65
2023-06-10T08:26:57.312Z,7.03
2023-06-10T08:29:24.543Z,6.93
2023-06-10T08:31:51.587Z,6.65
2023-06-10T08:34:18.467Z,6.78
2023-06-10T08:36:46.630Z,6.88
2023-06-10T08:39:13.681Z,6.90
2023-06-10T08:41:43.801Z,6.50
2023-06-10T08:44:16.496Z,6.32
2023-06-10T08:46:44.708Z,6.60
2023-06-10T08:49:11.812Z,7.22
2023-06-10T08:51:39.094Z,6.18
2023-06-10T08:54:12.115Z,6.20
2023-06-10T08:56:40.679Z,6.90
2023-06-10T08:59:07.685Z,6.13
2023-06-10T09:01:34.844Z,6.60
2023-06-10T09:04:02.705Z,6.78
2023-06-10T09:06:29.561Z,6.60
2023-06-10T09:08:56.601Z,6.70
2023-06-10T09:11:23.546Z,6.50
2023-06-10T09:13:50.727Z,6.38
2023-06-10T09:16:18.112Z,6.80
2023-06-10T09:18:45.096Z,6.82
2023-06-10T09:21:12.452Z,7.25
2023-06-10T09:23:39.378Z,6.53
2023-06-10T09:26:10.750Z,6.82
2023-06-10T09:28:37.767Z,6.38
2023-06-10T09:31:06.554Z,6.43
2023-06-10T09:33:33.845Z,6.22
2023-06-10T09:36:02.798Z,6.75
2023-06-10T09:38:34.885Z,6.93
2023-06-10T09:41:04.487Z,7.00
2023-06-10T09:43:41.400Z,6.55
2023-06-10T09:46:08.730Z,6.15
2023-06-10T09:48:36.221Z,7.05
2023-06-10T09:51:03.121Z,6.45
2023-06-10T09:53:34.236Z,6.30
2023-06-10T09:56:01.201Z,7.38
2023-06-10T09:58:37.619Z,6.97
2023-06-10T10:01:09.465Z,6.65
2023-06-10T10:03:44.163Z,6.82
2023-06-10T10:06:11.033Z,6.80
2023-06-10T10:08:38.016Z,7.43
2023-06-10T10:11:05.019Z,7.28
2023-06-10T10:13:34.553Z,7.25
2023-06-10T10:16:03.040Z,7.25
2023-06-10T10:18:31.585Z,6.68
2023-06-10T10:21:00.512Z,6.75
2023-06-10T10:23:36.180Z,7.05
2023-06-10T10:26:10.821Z,6.80
2023-06-10T10:28:52.532Z,7.25
2023-06-10T10:31:20.339Z,7.20
2023-06-10T10:33:53.220Z,6.63
2023-06-10T10:36:20.598Z,7.18
2023-06-10T10:38:51.687Z,7.28
2023-06-10T10:41:20.123Z,6.45
2023-06-10T10:43:47.637Z,7.00
2023-06-10T10:46:15.791Z,7.10
2023-06-10T10:48:43.175Z,7.30
2023-06-10T10:51:10.583Z,7.38
2023-06-10T10:53:40.801Z,7.38
2023-06-10T10:56:09.178Z,7.47
2023-06-10T10:58:36.479Z,7.43
2023-06-10T11:01:13.496Z,7.53
2023-06-10T11:03:48.817Z,7.45
2023-06-10T11:06:16.783Z,7.32
2023-06-10T11:08:45.059Z,7.30
2023-06-10T11:11:19.435Z,7.68
2023-06-10T11:13:59.124Z,7.47
2023-06-10T11:16:27.152Z,6.85
2023-06-10T11:18:57.236Z,6.78
2023-06-10T11:21:29.103Z,6.82
2023-06-10T11:23:58.938Z,7.10
2023-06-10T11:26:32.770Z,6.85
2023-06-10T11:28:59.803Z,6.65
2023-06-10T11:31:31.110Z,6.55
2023-06-10T11:33:59.167Z,6.90
2023-06-10T11:36:27.236Z,7.22
2023-06-10T11:38:57.880Z,7.07
2023-06-10T11:41:26.832Z,7.30
2023-06-10T11:43:54.961Z,6.88
2023-06-10T11:46:21.858Z,7.75
2023-06-10T11:48:58.773Z,6.75
2023-06-10T11:51:29.805Z,6.15
2023-06-10T11:53:56.741Z,6.32
2023-06-10T11:56:24.285Z,6.18
2023-06-10T11:58:55.837Z,5.60
2023-06-10T12:01:28.957Z,5.70
2023-06-10T12:04:06.473Z,7.88
2023-06-10T12:06:40.983Z,5.47
2023-06-10T12:09:22.904Z,6.28
2023-06-10T12:12:04.742Z,5.78
2023-06-10T12:14:50.144Z,5.70
2023-06-10T12:17:17.008Z,5.57
2023-06-10T12:19:44.398Z,5.40
2023-06-10T12:22:11.410Z,6.25
2023-06-10T12:24:45.667Z,5.57
2023-06-10T12:27:13.292Z,5.75
2023-06-10T12:29:40.484Z,5.53
2023-06-10T12:32:08.681Z,5.60
2023-06-10T12:34:37.487Z,6.05
2023-06-10T12:37:05.280Z,5.43
2023-06-10T12:39:32.899Z,5.53
2023-06-10T12:42:00.139Z,5.40
2023-06-10T12:44:36.895Z,5.10
2023-06-10T12:47:11.049Z,6.00
2023-06-10T12:49:38.292Z,6.65
2023-06-10T12:52:05.773Z,6.05
2023-06-10T12:54:32.789Z,5.32
2023-06-10T12:56:59.816Z,4.90
2023-06-10T12:59:28.217Z,4.60
2023-06-10T13:01:55.485Z,4.88
2023-06-10T13:04:22.701Z,6.10
2023-06-10T13:06:50.191Z,5.13
2023-06-10T13:09:17.252Z,5.50
2023-06-10T13:11:44.252Z,5.40
2023-06-10T13:14:11.265Z,5.88
2023-06-10T13:16:39.425Z,5.72
2023-06-10T13:19:06.653Z,5.22
2023-06-10T13:21:34.742Z,5.95
2023-06-10T13:24:03.143Z,5.03
2023-06-10T13:26:30.012Z,5.50
2023-06-10T13:28:56.981Z,5.68
2023-06-10T13:31:23.956Z,5.85
2023-06-10T13:33:50.862Z,5.35
2023-06-10T13:36:17.732Z,5.55
2023-06-10T13:38:44.717Z,4.80
2023-06-10T13:41:11.719Z,5.43
2023-06-10T13:43:38.627Z,5.68
2023-06-10T13:46:05.560Z,5.65
2023-06-10T13:48:32.542Z,5.50
2023-06-10T13:51:00.664Z,5.60
2023-06-10T13:53:27.571Z,5.45
2023-06-10T13:55:54.410Z,5.40
2023-06-10T13:58:21.297Z,5.40
2023-06-10T14:00:48.514Z,5.63
2023-06-10T14:03:15.704Z,5.80
2023-06-10T14:05:42.971Z,6.75
2023-06-10T14:08:09.834Z,5.75
2023-06-10T14:10:36.766Z,6.20
2023-06-10T14:13:03.843Z,5.40
2023-06-10T14:15:31.755Z,5.97
2023-06-10T14:17:58.767Z,6.00
2023-06-10T14:20:27.812Z,6.25
2023-06-10T14:22:54.763Z,5.80
2023-06-10T14:25:21.671Z,5.90
2023-06-10T14:27:48.609Z,5.53
2023-06-10T14:30:16.074Z,5.75
2023-06-10T14:32:43.222Z,5.88
2023-06-10T14:35:11.046Z,6.18
2023-06-10T14:37:38.288Z,5.82
2023-06-10T14:40:06.193Z,5.68
2023-06-10T14:42:33.490Z,5.80
2023-06-10T14:45:00.380Z,6.10
2023-06-10T14:47:27.296Z,5.78
2023-06-10T14:49:54.226Z,5.80
2023-06-10T14:52:21.090Z,5.70
2023-06-10T14:54:47.940Z,6.40
2023-06-10T14:57:14.840Z,6.03
2023-06-10T14:59:41.674Z,5.93
2023-06-10T15:02:08.667Z,6.18
2023-06-10T15:04:36.232Z,6.00
2023-06-10T15:07:03.161Z,6.13
2023-06-10T15:09:30.159Z,5.80
2023-06-10T15:11:57.181Z,5.53
2023-06-10T15:14:24.065Z,6.38
2023-06-10T15:16:51.008Z,5.95
2023-06-10T15:19:17.984Z,5.75
2023-06-10T15:21:44.905Z,5.85
2023-06-10T15:24:11.867Z,5.95
2023-06-10T15:26:38.759Z,6.07
2023-06-10T15:29:06.288Z,6.18
2023-06-10T15:31:33.866Z,5.90
2023-06-10T15:34:01.095Z,5.97
2023-06-10T15:36:28.149Z,6.13
2023-06-10T15:38:57.048Z,5.78
2023-06-10T15:41:24.069Z,5.80
2023-06-10T15:43:51.026Z,6.10
2023-06-10T15:46:17.932Z,6.57
2023-06-10T15:48:44.772Z,6.20
2023-06-10T15:51:11.812Z,6.50
2023-06-10T15:53:38.720Z,6.10
2023-06-10T15:56:05.574Z,6.32
2023-06-10T15:58:32.429Z,5.75
2023-06-10T16:00:59.434Z,5.97
2023-06-10T16:03:26.539Z,5.70
2023-06-10T16:05:53.557Z,6.13
2023-06-10T16:08:20.486Z,6.45
2023-06-10T16:10:47.471Z,5.88
2023-06-10T16:13:14.335Z,5.97
2023-06-10T16:15:41.180Z,5.93
2023-06-10T16:18:08.502Z,5.57
2023-06-10T16:20:38.418Z,5.57
2023-06-10T16:23:05.607Z,5.97
2023-06-10T16:25:34.960Z,5.57
2023-06-10T16:28:03.223Z,5.90
2023-06-10T16:30:30.137Z,6.00
2023-06-10T16:32:57.153Z,5.85
2023-06-10T16:35:24.076Z,5.95
2023-06-10T16:37:50.906Z,5.63
2023-06-10T16:40:17.764Z,5.45
2023-06-10T16:42:44.638Z,5.28
2023-06-10T16:45:11.855Z,5.45
2023-06-10T16:47:39.016Z,5.30
2023-06-10T16:50:06.032Z,5.70
2023-06-10T16:52:32.923Z,4.88
2023-06-10T16:54:59.912Z,5.15
2023-06-10T16:57:26.785Z,5.80
2023-06-10T16:59:53.721Z,5.53
2023-06-10T17:02:21.042Z,5.50
2023-06-10T17:04:47.959Z,5.38
2023-06-10T17:07:15.236Z,5.72
2023-06-10T17:09:42.198Z,5.50
2023-06-10T17:12:09.262Z,5.57
2023-06-10T17:14:36.105Z,5.72
2023-06-10T17:17:03.104Z,5.53
2023-06-10T17:19:30.511Z,5.68
2023-06-10T17:21:58.426Z,5.78
2023-06-10T17:24:25.500Z,7.93
2023-06-10T17:26:52.403Z,8.68
2023-06-10T17:29:19.268Z,9.10
2023-06-10T17:31:46.253Z,9.40
2023-06-10T17:34:13.166Z,9.93
2023-06-10T17:36:40.054Z,9.30
2023-06-10T17:39:07.837Z,9.40
2023-06-10T17:41:34.663Z,10.73
2023-06-10T17:44:01.496Z,10.32
2023-06-10T17:46:28.438Z,11.20
2023-06-10T17:48:55.598Z,13.45
2023-06-10T17:51:23.520Z,11.02
2023-06-10T17:53:51.661Z,11.20
2023-06-10T17:56:18.548Z,10.88
2023-06-10T17:58:45.368Z,10.00
2023-06-10T18:01:12.367Z,10.05
2023-06-10T18:03:39.352Z,9.85
2023-06-10T18:06:06.311Z,9.57
2023-06-10T18:08:36.048Z,13.40
2023-06-10T18:11:04.078Z,10.13
2023-06-10T18:13:31.994Z,10.80
2023-06-10T18:16:03.384Z,10.38
2023-06-10T18:18:30.470Z,10.15
2023-06-10T18:20:58.260Z,10.75
2023-06-10T18:23:26.716Z,9.18
2023-06-10T18:25:53.569Z,9.82
2023-06-10T18:28:20.422Z,9.80
2023-06-10T18:30:47.305Z,9.65
2023-06-10T18:33:14.209Z,10.02
2023-06-10T18:35:41.175Z,9.68
2023-06-10T18:38:08.059Z,9.70
2023-06-10T18:40:34.880Z,9.30
2023-06-10T18:43:01.806Z,11.13
2023-06-10T18:45:28.764Z,9.18
2023-06-10T18:47:58.046Z,9.52
2023-06-10T18:50:25.927Z,9.13
2023-06-10T18:52:52.921Z,9.30
2023-06-10T18:55:19.976Z,8.85
2023-06-10T18:57:46.804Z,8.93
2023-06-10T19:00:14.215Z,8.75
2023-06-10T19:02:41.186Z,8.20
2023-06-10T19:05:10.770Z,8.68
2023-06-10T19:07:37.880Z,7.97
2023-06-10T19:10:04.985Z,7.93
2023-06-10T19:12:32.043Z,8.48
2023-06-10T19:14:59.004Z,7.97
2023-06-10T19:17:26.143Z,9.32
2023-06-10T19:19:53.002Z,10.57
2023-06-10T19:22:19.940Z,12.32
2023-06-10T19:24:48.305Z,11.13
2023-06-10T19:27:15.128Z,8.85
2023-06-10T19:29:41.997Z,9.30
2023-06-10T19:32:08.983Z,8.60
2023-06-10T19:34:35.941Z,8.82
2023-06-10T19:37:02.933Z,8.70
2023-06-10T19:39:29.778Z,8.43
2023-06-10T19:41:56.663Z,8.23
2023-06-10T19:44:23.584Z,8.35
2023-06-10T19:46:51.554Z,8.85
2023-06-10T19:49:18.668Z,8.60
2023-06-10T19:51:48.958Z,8.13
2023-06-10T19:54:16.080Z,8.75
2023-06-10T19:56:43.042Z,8.23
2023-06-10T19:59:09.935Z,8.25
2023-06-10T20:01:36.864Z,8.43
2023-06-10T20:04:05.742Z,8.38
2023-06-10T20:06:32.903Z,8.38
2023-06-10T20:08:59.886Z,8.25
2023-06-10T20:11:26.794Z,8.85
2023-06-10T20:13:53.727Z,8.68
2023-06-10T20:16:21.344Z,8.05
2023-06-10T20:18:52.549Z,8.50
2023-06-10T20:21:20.914Z,8.82
2023-06-10T20:23:48.397Z,8.50
2023-06-10T20:26:15.257Z,8.63
2023-06-10T20:28:42.117Z,9.20
2023-06-10T20:31:09.319Z,8.40
2023-06-10T20:33:36.343Z,8.77
2023-06-10T20:36:03.270Z,8.77
2023-06-10T20:38:30.292Z,9.38
2023-06-10T20:40:57.190Z,9.95
2023-06-10T20:43:24.171Z,11.35
2023-06-10T20:45:51.650Z,11.13
2023-06-10T20:48:18.574Z,9.55
2023-06-10T20:50:45.524Z,9.85
2023-06-10T20:53:12.746Z,9.43
2023-06-10T20:55:39.711Z,9.77
2023-06-10T20:58:06.631Z,9.15
2023-06-10T21:00:33.542Z,8.90
2023-06-10T21:03:00.881Z,9.75
2023-06-10T21:05:27.758Z,8.98
2023-06-10T21:07:54.651Z,9.70
2023-06-10T21:10:21.542Z,9.68
2023-06-10T21:12:48.473Z,9.73
2023-06-10T21:15:16.636Z,8.93
2023-06-10T21:17:43.573Z,9.23
2023-06-10T21:20:11.306Z,9.13
2023-06-10T21:22:38.478Z,9.10
2023-06-10T21:25:05.584Z,9.35
2023-06-10T21:27:32.400Z,9.65
2023-06-10T21:29:59.288Z,8.82
2023-06-10T21:32:26.785Z,8.75
2023-06-10T21:34:53.712Z,9.55
2023-06-10T21:37:20.690Z,8.90
2023-06-10T21:39:47.505Z,8.45
2023-06-10T21:42:14.339Z,8.60
2023-06-10T21:44:41.238Z,8.90
2023-06-10T21:47:08.220Z,8.48
2023-06-10T21:49:35.154Z,8.10
2023-06-10T21:52:02.097Z,8.52
2023-06-10T21:54:29.063Z,8.52
2023-06-10T21:56:56.080Z,8.60
2023-06-10T21:59:23.576Z,8.30
2023-06-10T22:01:50.909Z,9.18
2023-06-10T22:04:17.850Z,8.90
2023-06-10T22:06:45.456Z,9.43
2023-06-10T22:09:12.277Z,8.80
2023-06-10T22:11:39.150Z,8.70
2023-06-10T22:14:06.355Z,9.20
2023-06-10T22:16:33.289Z,8.63
2023-06-10T22:19:00.221Z,8.65
2023-06-10T22:21:27.280Z,8.45
2023-06-10T22:23:54.442Z,8.40
2023-06-10T22:26:21.804Z,8.00
2023-06-10T22:28:48.755Z,8.27
2023-06-10T22:31:15.755Z,8.25
2023-06-10T22:33:42.680Z,8.60
2023-06-10T22:36:09.570Z,15.65
2023-06-10T22:38:36.411Z,12.13
2023-06-10T22:41:04.044Z,14.23
2023-06-10T22:43:30.885Z,10.43
2023-06-10T22:45:57.760Z,9.43
2023-06-10T22:48:24.696Z,8.63
2023-06-10T22:50:51.831Z,9.15
2023-06-10T22:53:19.046Z,8.73
2023-06-10T22:55:46.026Z,8.27
2023-06-10T22:58:12.884Z,8.15
2023-06-10T23:00:39.704Z,8.05
2023-06-10T23:03:06.573Z,8.02
2023-06-10T23:05:33.512Z,7.93
2023-06-10T23:08:00.398Z,8.02
2023-06-10T23:10:27.269Z,7.80
2023-06-10T23:12:54.154Z,7.63
2023-06-10T23:15:20.997Z,7.45
2023-06-10T23:17:49.510Z,7.40
2023-06-10T23:20:21.023Z,7.65
2023-06-10T23:22:53.045Z,7.55
2023-06-10T23:25:26.172Z,7.35
2023-06-10T23:27:53.296Z,6.82
2023-06-10T23:30:20.330Z,7.35
2023-06-10T23:32:47.468Z,7.68
2023-06-10T23:35:20.095Z,6.97
2023-06-10T23:37:47.900Z,7.28
2023-06-10T23:40:15.122Z,7.50
2023-06-10T23:42:41.956Z,7.45
2023-06-10T23:45:09.253Z,7.20
2023-06-10T23:47:38.039Z,7.18
2023-06-10T23:50:05.702Z,7.25
2023-06-10T23:52:32.604Z,7.07
2023-06-10T23:55:00.151Z,7.40
2023-06-10T23:57:27.039Z,7.00
2023-06-10T23:59:53.907Z,7.90
